Time;durP1;ratioP1;P1;durP2;ratioP2;P2;SDS_P1;SDS_P2;PMS_P1;PMS_P2;Temp;Humidity;BMP_temperature;BMP_pressure;BME280_temperature;BME280_humidity;BME280_pressure;Samples;Min_cycle;Max_cycle;Signal;HPM_P1;HPM_P2
2023/01/27 00:02:21;;;;;;;11.77;7.43;;;;;;;;;;5086098;28;20052;-74
2023/01/27 00:04:53;;;;;;;11.23;7.70;;;;;;;;;;5086848;28;20517;-73
2023/01/27 00:07:25;;;;;;;13.02;8.07;;;;;;;;;;5086319;28;20372;-73
2023/01/27 00:09:56;;;;;;;13.13;7.50;;;;;;;;;;5085888;28;20402;-76
2023/01/27 00:15:17;;;;;;;13.95;8.50;;;;;;;;;;5086596;28;20036;-73
2023/01/27 00:17:48;;;;;;;18.70;9.95;;;;;;;;;;5084983;28;20040;-73
2023/01/27 00:26:17;;;;;;;13.90;10.38;;;;;;;;;;5088001;28;20044;-74
2023/01/27 00:28:48;;;;;;;15.40;12.50;;;;;;;;;;5090380;28;20411;-73
2023/01/27 00:34:09;;;;;;;12.93;9.07;;;;;;;;;;5087980;28;20063;-74
2023/01/27 00:36:41;;;;;;;15.80;8.73;;;;;;;;;;5088353;28;20074;-74
2023/01/27 00:39:12;;;;;;;12.52;7.53;;;;;;;;;;5089306;28;20048;-73
2023/01/27 00:41:44;;;;;;;12.75;7.55;;;;;;;;;;5089435;28;20415;-74
2023/01/27 00:44:16;;;;;;;9.80;7.00;;;;;;;;;;5086599;28;20055;-72
2023/01/27 00:46:47;;;;;;;9.02;7.38;;;;;;;;;;5087090;28;20533;-73
2023/01/27 00:49:18;;;;;;;10.98;7.82;;;;;;;;;;5089091;28;20055;-73
2023/01/27 00:51:48;;;;;;;20.15;12.70;;;;;;;;;;5089213;28;20055;-73
2023/01/27 00:54:20;;;;;;;15.23;11.25;;;;;;;;;;5089569;28;20048;-74
2023/01/27 00:56:50;;;;;;;14.07;10.63;;;;;;;;;;5088654;28;20052;-73
2023/01/27 00:59:21;;;;;;;14.30;9.63;;;;;;;;;;5089151;28;20067;-73
2023/01/27 01:01:53;;;;;;;12.73;9.02;;;;;;;;;;5086889;28;20044;-73
2023/01/27 01:04:24;;;;;;;15.57;8.93;;;;;;;;;;5071361;28;20048;-73
2023/01/27 01:06:56;;;;;;;14.15;7.53;;;;;;;;;;5088601;28;20055;-73
2023/01/27 01:09:26;;;;;;;14.02;7.40;;;;;;;;;;5089059;28;20044;-73
2023/01/27 01:11:57;;;;;;;10.85;8.05;;;;;;;;;;5086744;28;20056;-74
2023/01/27 01:14:28;;;;;;;14.80;9.57;;;;;;;;;;5086621;28;20504;-74
2023/01/27 01:17:00;;;;;;;9.70;7.18;;;;;;;;;;5088508;28;20051;-74
2023/01/27 01:19:31;;;;;;;13.68;7.15;;;;;;;;;;5088527;28;20071;-73
2023/01/27 01:22:05;;;;;;;8.60;6.07;;;;;;;;;;5088252;28;20063;-73
2023/01/27 01:24:36;;;;;;;10.20;6.05;;;;;;;;;;5087503;28;20048;-74
2023/01/27 01:27:06;;;;;;;8.70;5.90;;;;;;;;;;5087474;28;20105;-73
2023/01/27 01:29:37;;;;;;;8.30;6.50;;;;;;;;;;5088368;28;20040;-73
2023/01/27 01:32:09;;;;;;;12.18;6.75;;;;;;;;;;5087133;28;20059;-75
2023/01/27 01:34:39;;;;;;;8.38;6.30;;;;;;;;;;5088758;28;20075;-73
2023/01/27 01:37:11;;;;;;;10.20;6.15;;;;;;;;;;5086862;28;20503;-74
2023/01/27 01:39:42;;;;;;;10.77;6.43;;;;;;;;;;5086892;28;20422;-74
2023/01/27 01:42:12;;;;;;;10.75;6.40;;;;;;;;;;5088162;28;20044;-74
2023/01/27 01:44:45;;;;;;;7.38;6.28;;;;;;;;;;5085516;28;20051;-72
2023/01/27 01:47:17;;;;;;;9.00;6.53;;;;;;;;;;5086139;28;20048;-73
2023/01/27 01:49:50;;;;;;;8.05;6.15;;;;;;;;;;5087079;28;20056;-74
2023/01/27 01:52:21;;;;;;;10.23;6.28;;;;;;;;;;5088160;28;20036;-73
2023/01/27 01:54:57;;;;;;;13.15;6.70;;;;;;;;;;5088538;28;20122;-74
2023/01/27 01:57:36;;;;;;;9.07;6.03;;;;;;;;;;5085382;28;20531;-73
2023/01/27 02:00:09;;;;;;;6.57;4.68;;;;;;;;;;5085434;28;20051;-74
2023/01/27 02:02:42;;;;;;;9.50;5.03;;;;;;;;;;5090179;28;20130;-74
2023/01/27 02:05:23;;;;;;;8.55;5.47;;;;;;;;;;5075720;28;20043;-75
2023/01/27 02:08:09;;;;;;;9.15;6.15;;;;;;;;;;5077889;28;20052;-73
2023/01/27 02:10:41;;;;;;;9.15;5.50;;;;;;;;;;5075840;28;20419;-74
2023/01/27 02:13:12;;;;;;;12.68;5.90;;;;;;;;;;5077925;28;20419;-72
2023/01/27 02:15:43;;;;;;;10.73;5.43;;;;;;;;;;5068766;28;20403;-74
2023/01/27 02:18:15;;;;;;;10.30;5.80;;;;;;;;;;5065587;28;20166;-74
2023/01/27 02:20:46;;;;;;;9.25;5.35;;;;;;;;;;5066043;28;20079;-73
2023/01/27 02:23:41;;;;;;;6.35;4.53;;;;;;;;;;5066006;28;20633;-72
2023/01/27 02:26:25;;;;;;;6.10;3.92;;;;;;;;;;5064801;28;20049;-72
2023/01/27 02:29:07;;;;;;;5.55;3.03;;;;;;;;;;5065089;28;20352;-73
2023/01/27 02:31:39;;;;;;;5.68;3.70;;;;;;;;;;5064552;28;20147;-72
2023/01/27 02:34:13;;;;;;;8.63;3.22;;;;;;;;;;5070724;28;20123;-74
2023/01/27 02:36:58;;;;;;;5.05;3.67;;;;;;;;;;5065366;28;20063;-72
2023/01/27 02:39:36;;;;;;;6.68;3.15;;;;;;;;;;5065127;28;20757;-72
2023/01/27 02:42:09;;;;;;;3.30;2.83;;;;;;;;;;5066287;28;20053;-72
2023/01/27 02:44:39;;;;;;;8.50;3.40;;;;;;;;;;5067358;28;20052;-74
2023/01/27 02:47:11;;;;;;;3.40;2.55;;;;;;;;;;5064986;28;20407;-74
2023/01/27 02:49:42;;;;;;;3.63;2.92;;;;;;;;;;5066398;28;20677;-73
2023/01/27 02:52:15;;;;;;;3.90;3.08;;;;;;;;;;5065061;28;20052;-73
2023/01/27 02:54:46;;;;;;;7.47;2.90;;;;;;;;;;5065180;28;20045;-72
2023/01/27 02:57:16;;;;;;;7.18;3.05;;;;;;;;;;5049300;28;20048;-72
2023/01/27 03:00:12;;;;;;;9.70;3.33;;;;;;;;;;5064790;28;20056;-73
2023/01/27 03:02:42;;;;;;;4.15;3.00;;;;;;;;;;5064742;28;20048;-73
2023/01/27 03:05:14;;;;;;;9.43;3.53;;;;;;;;;;5064592;28;20052;-73
2023/01/27 03:07:46;;;;;;;9.23;3.88;;;;;;;;;;5066659;28;20052;-74
2023/01/27 03:10:16;;;;;;;7.00;3.20;;;;;;;;;;5065584;28;20056;-73
2023/01/27 03:12:47;;;;;;;3.45;3.10;;;;;;;;;;5066893;28;20415;-75
2023/01/27 03:18:12;;;;;;;4.13;2.85;;;;;;;;;;5066878;28;20045;-74
2023/01/27 03:20:47;;;;;;;4.50;3.17;;;;;;;;;;5066460;28;20399;-74
2023/01/27 03:23:18;;;;;;;9.13;3.13;;;;;;;;;;5066622;28;20059;-74
2023/01/27 03:25:51;;;;;;;8.63;3.65;;;;;;;;;;5064248;28;20061;-74
2023/01/27 03:28:24;;;;;;;11.98;4.38;;;;;;;;;;5064866;28;20041;-73
2023/01/27 03:31:08;;;;;;;5.07;3.10;;;;;;;;;;5064508;28;20427;-73
2023/01/27 03:33:46;;;;;;;8.00;3.42;;;;;;;;;;5064750;28;20068;-74
2023/01/27 03:47:23;;;;;;;4.60;3.45;;;;;;;;;;5084545;28;21029;-74
2023/01/27 03:49:54;;;;;;;3.63;3.25;;;;;;;;;;5084205;28;20067;-73
2023/01/27 03:52:24;;;;;;;3.53;2.33;;;;;;;;;;5082094;28;20060;-73
2023/01/27 03:54:57;;;;;;;4.78;2.70;;;;;;;;;;5083660;28;20048;-73
2023/01/27 03:57:27;;;;;;;3.55;2.75;;;;;;;;;;5083763;28;20498;-73
2023/01/27 03:59:59;;;;;;;4.47;2.92;;;;;;;;;;5083767;28;20399;-73
2023/01/27 04:08:10;;;;;;;8.55;3.97;;;;;;;;;;5083868;28;20142;-73
2023/01/27 04:11:53;;;;;;;11.70;3.50;;;;;;;;;;5083624;28;20040;-73
2023/01/27 04:13:32;;;;;;;4.20;3.13;;;;;;;;;;5083862;28;20052;-74
2023/01/27 04:16:03;;;;;;;5.90;3.47;;;;;;;;;;5084206;28;20037;-73
2023/01/27 04:18:36;;;;;;;10.95;3.60;;;;;;;;;;5084148;28;20052;-73
2023/01/27 04:21:07;;;;;;;9.18;3.63;;;;;;;;;;5083624;28;20044;-74
2023/01/27 04:23:38;;;;;;;4.63;3.72;;;;;;;;;;5083446;28;20048;-74
2023/01/27 04:26:09;;;;;;;5.43;3.53;;;;;;;;;;5083148;28;20063;-74
2023/01/27 04:28:40;;;;;;;7.72;4.40;;;;;;;;;;5083406;28;20051;-73
2023/01/27 04:31:14;;;;;;;6.88;4.65;;;;;;;;;;5083512;28;20048;-73
2023/01/27 04:33:45;;;;;;;9.15;3.97;;;;;;;;;;5082511;28;20059;-73
2023/01/27 04:36:15;;;;;;;6.50;3.03;;;;;;;;;;5083387;28;20421;-73
2023/01/27 04:38:46;;;;;;;5.80;4.07;;;;;;;;;;5083484;28;20490;-73
2023/01/27 04:41:18;;;;;;;5.68;3.15;;;;;;;;;;5081560;28;20059;-74
2023/01/27 04:43:49;;;;;;;9.43;4.07;;;;;;;;;;5083504;28;20075;-73
2023/01/27 04:46:20;;;;;;;10.93;4.30;;;;;;;;;;5083096;28;20067;-74
2023/01/27 04:48:51;;;;;;;9.15;4.00;;;;;;;;;;5083502;28;20048;-73
2023/01/27 04:51:24;;;;;;;5.97;3.80;;;;;;;;;;5083287;28;20051;-74
2023/01/27 04:53:55;;;;;;;8.80;3.95;;;;;;;;;;5082931;28;20063;-73
2023/01/27 04:56:32;;;;;;;7.63;3.13;;;;;;;;;;5083056;28;20048;-73
2023/01/27 04:59:10;;;;;;;5.30;3.40;;;;;;;;;;5068928;28;20506;-73
2023/01/27 05:01:41;;;;;;;11.45;3.47;;;;;;;;;;5069163;28;20049;-73
2023/01/27 05:04:12;;;;;;;6.00;3.63;;;;;;;;;;5068216;28;20052;-73
2023/01/27 05:06:43;;;;;;;7.03;3.55;;;;;;;;;;5068981;28;20056;-73
2023/01/27 05:09:15;;;;;;;7.30;4.07;;;;;;;;;;5068819;28;20044;-74
2023/01/27 05:11:47;;;;;;;10.13;3.30;;;;;;;;;;5068748;28;20041;-73
2023/01/27 05:14:19;;;;;;;5.30;3.78;;;;;;;;;;5069773;28;20067;-73
2023/01/27 05:16:51;;;;;;;7.72;2.97;;;;;;;;;;5068933;28;20383;-73
2023/01/27 05:19:22;;;;;;;7.38;2.70;;;;;;;;;;5069464;28;20048;-74
2023/01/27 05:21:54;;;;;;;6.28;3.42;;;;;;;;;;5068743;28;20080;-74
2023/01/27 05:24:25;;;;;;;7.47;4.40;;;;;;;;;;5068413;28;20048;-73
2023/01/27 05:26:56;;;;;;;5.50;3.35;;;;;;;;;;5068923;28;20052;-73
2023/01/27 05:29:27;;;;;;;10.85;5.20;;;;;;;;;;5068699;28;20545;-74
2023/01/27 05:31:59;;;;;;;8.20;4.40;;;;;;;;;;5068870;28;20530;-73
2023/01/27 05:34:30;;;;;;;13.07;4.10;;;;;;;;;;5068054;28;20098;-74
2023/01/27 05:37:01;;;;;;;5.28;3.80;;;;;;;;;;5069012;28;20806;-73
2023/01/27 05:39:33;;;;;;;9.15;4.50;;;;;;;;;;5068732;28;20475;-73
2023/01/27 05:42:06;;;;;;;8.63;4.03;;;;;;;;;;5068469;28;20052;-74
2023/01/27 05:44:37;;;;;;;9.45;4.47;;;;;;;;;;5068618;28;20071;-74
2023/01/27 05:47:08;;;;;;;6.18;4.53;;;;;;;;;;5066089;28;20958;-74
2023/01/27 05:49:39;;;;;;;7.57;4.00;;;;;;;;;;5068404;28;20059;-75
2023/01/27 05:52:11;;;;;;;6.72;4.13;;;;;;;;;;5068291;28;20863;-73
2023/01/27 05:54:42;;;;;;;8.15;4.43;;;;;;;;;;5068427;28;20056;-74
2023/01/27 05:57:14;;;;;;;13.00;3.90;;;;;;;;;;5066635;28;20040;-73
2023/01/27 05:59:45;;;;;;;11.88;4.10;;;;;;;;;;5068103;28;20418;-74
2023/01/27 06:02:42;;;;;;;8.10;4.15;;;;;;;;;;5068402;28;20047;-73
2023/01/27 06:05:13;;;;;;;7.07;4.80;;;;;;;;;;5067000;28;20052;-74
2023/01/27 06:07:43;;;;;;;5.43;4.55;;;;;;;;;;5068206;28;20051;-73
2023/01/27 06:10:16;;;;;;;14.38;4.80;;;;;;;;;;5067083;28;20044;-73
2023/01/27 06:12:47;;;;;;;13.82;4.75;;;;;;;;;;5068114;28;20041;-74
2023/01/27 06:15:18;;;;;;;11.85;3.92;;;;;;;;;;5067795;28;20055;-73
2023/01/27 06:17:48;;;;;;;10.40;4.03;;;;;;;;;;5067099;28;20056;-73
2023/01/27 06:20:22;;;;;;;5.53;3.90;;;;;;;;;;5067774;28;20418;-73
2023/01/27 06:22:53;;;;;;;11.20;4.55;;;;;;;;;;5066418;28;20513;-74
2023/01/27 06:25:24;;;;;;;10.55;4.07;;;;;;;;;;5068349;28;20075;-73
2023/01/27 06:27:56;;;;;;;6.43;4.00;;;;;;;;;;5067451;28;20044;-74
2023/01/27 06:30:28;;;;;;;9.38;4.20;;;;;;;;;;5067857;28;20052;-73
2023/01/27 06:33:00;;;;;;;4.85;4.10;;;;;;;;;;5067228;28;20048;-73
2023/01/27 06:35:31;;;;;;;12.38;4.00;;;;;;;;;;5067646;28;20056;-74
2023/01/27 06:38:05;;;;;;;4.43;3.75;;;;;;;;;;5067722;28;20055;-73
2023/01/27 06:40:37;;;;;;;8.80;3.70;;;;;;;;;;5067571;28;20055;-74
2023/01/27 06:43:13;;;;;;;9.35;3.40;;;;;;;;;;5065996;28;20052;-74
2023/01/27 06:45:43;;;;;;;9.77;4.13;;;;;;;;;;5066586;28;20068;-73
2023/01/27 06:48:14;;;;;;;7.68;3.50;;;;;;;;;;5067203;28;20418;-75
2023/01/27 06:50:44;;;;;;;10.30;4.18;;;;;;;;;;5066786;28;20522;-74
2023/01/27 06:53:15;;;;;;;10.35;3.95;;;;;;;;;;5067237;28;20059;-73
2023/01/27 06:56:12;;;;;;;14.52;3.78;;;;;;;;;;5066220;28;20064;-73
2023/01/27 06:58:46;;;;;;;7.95;3.80;;;;;;;;;;5065939;28;20391;-74
2023/01/27 07:01:17;;;;;;;10.30;4.22;;;;;;;;;;5066965;28;20044;-73
2023/01/27 07:03:49;;;;;;;10.40;3.45;;;;;;;;;;5064489;28;20052;-74
2023/01/27 07:06:21;;;;;;;10.68;3.67;;;;;;;;;;5066457;28;20048;-74
2023/01/27 07:08:53;;;;;;;6.32;4.13;;;;;;;;;;5067112;28;20040;-74
2023/01/27 07:11:24;;;;;;;4.18;3.63;;;;;;;;;;5067058;28;20044;-73
2023/01/27 07:13:55;;;;;;;5.93;4.18;;;;;;;;;;5066531;28;20487;-73
2023/01/27 07:16:26;;;;;;;6.97;3.65;;;;;;;;;;5067093;28;20055;-73
2023/01/27 07:18:58;;;;;;;5.95;3.05;;;;;;;;;;5065417;28;20044;-73
2023/01/27 07:21:29;;;;;;;7.88;3.30;;;;;;;;;;5066312;28;20504;-73
2023/01/27 07:23:59;;;;;;;10.18;4.22;;;;;;;;;;5067048;28;20055;-73
2023/01/27 07:26:30;;;;;;;10.13;3.47;;;;;;;;;;5066582;28;20052;-73
2023/01/27 07:29:02;;;;;;;7.90;3.63;;;;;;;;;;5066790;28;20056;-73
2023/01/27 07:31:33;;;;;;;11.70;3.20;;;;;;;;;;5066644;28;20498;-73
2023/01/27 07:34:04;;;;;;;5.53;3.40;;;;;;;;;;5066407;28;20048;-74
2023/01/27 07:36:36;;;;;;;8.18;4.18;;;;;;;;;;5066417;28;20053;-73
2023/01/27 07:39:07;;;;;;;4.60;3.25;;;;;;;;;;5066867;28;20414;-73
2023/01/27 07:41:38;;;;;;;12.73;3.78;;;;;;;;;;5066487;28;20051;-74
2023/01/27 07:44:15;;;;;;;7.90;4.30;;;;;;;;;;5064767;28;20049;-73
2023/01/27 07:46:46;;;;;;;11.73;3.88;;;;;;;;;;5064160;28;20560;-73
2023/01/27 07:49:17;;;;;;;6.03;3.80;;;;;;;;;;5066695;28;20045;-73
2023/01/27 07:51:48;;;;;;;9.18;3.15;;;;;;;;;;5066440;28;20044;-74
2023/01/27 07:54:19;;;;;;;9.18;3.88;;;;;;;;;;5066209;28;20040;-73
2023/01/27 07:56:50;;;;;;;6.88;3.53;;;;;;;;;;5066824;28;20059;-74
2023/01/27 07:59:22;;;;;;;12.13;3.80;;;;;;;;;;5066375;28;20533;-73
2023/01/27 08:01:53;;;;;;;12.77;3.50;;;;;;;;;;5066603;28;20402;-73
2023/01/27 08:04:24;;;;;;;8.20;3.50;;;;;;;;;;5066342;28;20414;-74
2023/01/27 08:06:55;;;;;;;13.40;3.28;;;;;;;;;;5066100;28;20052;-73
2023/01/27 08:09:26;;;;;;;10.07;3.22;;;;;;;;;;5066701;28;20044;-74
2023/01/27 08:11:56;;;;;;;10.48;4.32;;;;;;;;;;5066636;28;20056;-73
2023/01/27 08:14:26;;;;;;;5.72;3.60;;;;;;;;;;5066871;28;20504;-73
2023/01/27 08:17:01;;;;;;;9.75;4.22;;;;;;;;;;5066674;28;20517;-73
2023/01/27 08:19:31;;;;;;;8.07;3.45;;;;;;;;;;5065211;28;20079;-74
2023/01/27 08:22:02;;;;;;;14.35;3.88;;;;;;;;;;5065746;28;20055;-78
2023/01/27 08:24:33;;;;;;;8.77;3.90;;;;;;;;;;5064461;28;20059;-74
2023/01/27 08:27:06;;;;;;;7.25;4.20;;;;;;;;;;5065953;28;20517;-73
2023/01/27 08:29:37;;;;;;;9.98;3.90;;;;;;;;;;5065825;28;20052;-73
2023/01/27 08:32:09;;;;;;;13.88;4.50;;;;;;;;;;5066398;28;20040;-73
2023/01/27 08:34:43;;;;;;;8.30;3.50;;;;;;;;;;5070092;28;20064;-74
2023/01/27 08:37:13;;;;;;;9.38;4.47;;;;;;;;;;5068053;28;20056;-75
2023/01/27 08:39:44;;;;;;;13.90;3.83;;;;;;;;;;5068967;28;20052;-75
2023/01/27 08:42:15;;;;;;;8.00;3.45;;;;;;;;;;5069270;28;20406;-74
2023/01/27 08:44:47;;;;;;;13.30;3.65;;;;;;;;;;5069370;28;20395;-74
2023/01/27 08:47:19;;;;;;;5.95;3.85;;;;;;;;;;5069549;28;20071;-74
2023/01/27 08:49:53;;;;;;;6.13;3.67;;;;;;;;;;5069546;28;21082;-74
2023/01/27 08:52:24;;;;;;;11.02;3.42;;;;;;;;;;5069238;28;20044;-74
2023/01/27 08:54:54;;;;;;;9.32;4.13;;;;;;;;;;5069315;28;20115;-75
2023/01/27 08:57:25;;;;;;;11.75;3.47;;;;;;;;;;5068757;28;20044;-73
2023/01/27 08:59:56;;;;;;;9.23;3.58;;;;;;;;;;5068920;28;20044;-75
2023/01/27 09:02:28;;;;;;;10.35;3.83;;;;;;;;;;5068828;28;20048;-75
2023/01/27 09:05:00;;;;;;;6.35;3.63;;;;;;;;;;5069130;28;20052;-75
2023/01/27 09:07:33;;;;;;;9.52;3.53;;;;;;;;;;5068442;28;20052;-74
2023/01/27 09:10:05;;;;;;;9.68;4.28;;;;;;;;;;5069129;28;20045;-74
2023/01/27 09:12:48;;;;;;;4.20;3.45;;;;;;;;;;5069023;28;20044;-74
2023/01/27 09:15:19;;;;;;;12.00;4.30;;;;;;;;;;5069636;28;20048;-74
2023/01/27 09:17:50;;;;;;;5.68;3.60;;;;;;;;;;5068780;28;20060;-75
2023/01/27 09:20:23;;;;;;;3.67;3.13;;;;;;;;;;5069153;28;20395;-74
2023/01/27 09:22:57;;;;;;;8.50;3.60;;;;;;;;;;5069051;28;20430;-74
2023/01/27 09:25:27;;;;;;;5.20;3.83;;;;;;;;;;5068749;28;20064;-74
2023/01/27 09:28:00;;;;;;;6.32;4.43;;;;;;;;;;5068299;28;20060;-74
2023/01/27 09:30:31;;;;;;;9.23;4.75;;;;;;;;;;5068211;28;20612;-75
2023/01/27 09:33:02;;;;;;;8.45;4.78;;;;;;;;;;5067198;28;20052;-74
2023/01/27 09:35:39;;;;;;;10.68;3.35;;;;;;;;;;5068742;28;20099;-74
2023/01/27 09:38:15;;;;;;;11.73;3.95;;;;;;;;;;5068532;28;20052;-75
2023/01/27 09:40:45;;;;;;;;;;;;;;;;;;5069385;28;20051;-74
2023/01/27 09:44:12;;;;;;;7.75;4.50;;;;;;;;;;5068609;28;20314;-74
2023/01/27 09:46:47;;;;;;;9.30;3.83;;;;;;;;;;5014703;28;20067;-75
2023/01/27 09:49:38;;;;;;;12.35;3.97;;;;;;;;;;5068764;28;20048;-74
2023/01/27 09:52:28;;;;;;;9.18;3.40;;;;;;;;;;5067896;28;20058;-75
2023/01/27 09:55:45;;;;;;;8.43;3.95;;;;;;;;;;5068342;28;20052;-74
2023/01/27 09:58:23;;;;;;;10.30;3.72;;;;;;;;;;5068417;28;20052;-75
2023/01/27 10:01:09;;;;;;;7.05;3.97;;;;;;;;;;5067789;28;20049;-75
2023/01/27 10:03:55;;;;;;;6.20;3.85;;;;;;;;;;5065017;28;20055;-76
2023/01/27 10:06:53;;;;;;;7.25;4.40;;;;;;;;;;5067269;28;20047;-75
2023/01/27 10:09:38;;;;;;;10.10;3.00;;;;;;;;;;5068242;28;20048;-76
2023/01/27 10:12:33;;;;;;;10.23;4.57;;;;;;;;;;5068397;28;20513;-75
2023/01/27 10:15:28;;;;;;;14.18;4.70;;;;;;;;;;5068238;28;20048;-75
2023/01/27 10:18:34;;;;;;;13.43;3.85;;;;;;;;;;5066269;28;20059;-75
2023/01/27 10:21:36;;;;;;;8.23;3.90;;;;;;;;;;5067050;28;20036;-75
2023/01/27 10:24:25;;;;;;;10.32;4.50;;;;;;;;;;5067368;28;20632;-75
2023/01/27 10:27:14;;;;;;;8.20;3.90;;;;;;;;;;5068054;28;20061;-75
2023/01/27 10:29:49;;;;;;;9.40;4.43;;;;;;;;;;5067355;28;20059;-75
2023/01/27 10:32:53;;;;;;;9.00;3.60;;;;;;;;;;5067260;28;20406;-77
2023/01/27 10:35:58;;;;;;;10.43;3.67;;;;;;;;;;5058378;28;20060;-75
2023/01/27 10:38:39;;;;;;;;;;;;;;;;;;5016567;28;20426;-76
2023/01/27 10:41:22;;;;;;;7.22;4.03;;;;;;;;;;5067586;28;19936;-76
2023/01/27 10:44:15;;;;;;;9.68;4.38;;;;;;;;;;5067253;28;20045;-76
2023/01/27 10:46:52;;;;;;;5.68;3.20;;;;;;;;;;5066427;28;20060;-76
2023/01/27 10:49:38;;;;;;;8.63;3.53;;;;;;;;;;5067269;28;20499;-76
2023/01/27 10:52:17;;;;;;;6.60;3.80;;;;;;;;;;5067275;28;20052;-76
2023/01/27 10:55:14;;;;;;;18.77;4.70;;;;;;;;;;5066510;28;20075;-76
2023/01/27 10:57:59;;;;;;;6.07;3.67;;;;;;;;;;5067082;28;20055;-75
2023/01/27 11:00:46;;;;;;;11.57;3.85;;;;;;;;;;5067213;28;20041;-76
2023/01/27 11:03:53;;;;;;;5.50;3.53;;;;;;;;;;5066900;28;20059;-76
2023/01/27 11:06:29;;;;;;;7.68;4.18;;;;;;;;;;5066969;28;20372;-76
2023/01/27 11:09:17;;;;;;;9.18;3.97;;;;;;;;;;5066910;28;20055;-80
2023/01/27 11:11:50;;;;;;;7.63;4.07;;;;;;;;;;5066719;28;20075;-76
2023/01/27 11:14:24;;;;;;;7.80;3.22;;;;;;;;;;5066510;28;20632;-75
2023/01/27 11:17:24;;;;;;;7.72;2.25;;;;;;;;;;5067071;28;20394;-75
2023/01/27 11:20:11;;;;;;;6.95;2.50;;;;;;;;;;5066355;28;20040;-75
2023/01/27 11:23:17;;;;;;;6.60;2.10;;;;;;;;;;5065413;28;20111;-75
2023/01/27 11:26:11;;;;;;;5.03;1.60;;;;;;;;;;5035407;28;20067;-76
2023/01/27 11:28:44;;;;;;;7.97;2.95;;;;;;;;;;5058505;28;20059;-76
2023/01/27 11:31:53;;;;;;;5.93;2.03;;;;;;;;;;5065482;28;20522;-78
2023/01/27 11:34:55;;;;;;;2.72;1.67;;;;;;;;;;5057752;28;20053;-77
2023/01/27 11:37:41;;;;;;;3.80;1.90;;;;;;;;;;5065911;28;20048;-78
2023/01/27 11:40:20;;;;;;;2.72;1.50;;;;;;;;;;5063192;28;20059;-75
2023/01/27 11:42:52;;;;;;;3.55;1.80;;;;;;;;;;5065453;28;20487;-76
2023/01/27 11:45:24;;;;;;;5.57;1.77;;;;;;;;;;5064894;28;20135;-76
2023/01/27 11:47:58;;;;;;;6.40;1.85;;;;;;;;;;5065424;28;20406;-77
2023/01/27 11:50:32;;;;;;;;;;;;;;;;;;5066558;28;20534;-77
2023/01/27 11:53:26;;;;;;;3.15;1.58;;;;;;;;;;5066376;28;19947;-76
2023/01/27 11:56:06;;;;;;;3.67;1.92;;;;;;;;;;5064409;28;20437;-76
2023/01/27 11:58:53;;;;;;;4.07;1.60;;;;;;;;;;5066592;28;20051;-76
2023/01/27 12:01:43;;;;;;;2.10;1.80;;;;;;;;;;5066589;28;20048;-78
2023/01/27 12:04:44;;;;;;;4.45;1.63;;;;;;;;;;5066305;28;20399;-76
2023/01/27 12:07:35;;;;;;;6.43;1.70;;;;;;;;;;5067144;28;20414;-76
2023/01/27 12:10:30;;;;;;;4.38;1.40;;;;;;;;;;5070164;28;20048;-74
2023/01/27 12:13:17;;;;;;;3.58;1.40;;;;;;;;;;5070228;28;20060;-74
2023/01/27 12:15:52;;;;;;;2.63;1.27;;;;;;;;;;5070443;28;20072;-74
2023/01/27 12:18:23;;;;;;;5.88;1.65;;;;;;;;;;5069051;28;20048;-74
2023/01/27 12:21:02;;;;;;;3.63;1.30;;;;;;;;;;5070638;28;20051;-74
2023/01/27 12:23:39;;;;;;;4.97;1.50;;;;;;;;;;5070206;28;20055;-78
2023/01/27 12:26:13;;;;;;;4.95;1.50;;;;;;;;;;5070141;28;20147;-75
2023/01/27 12:28:54;;;;;;;2.33;1.52;;;;;;;;;;5069939;28;20063;-74
2023/01/27 12:31:31;;;;;;;4.05;1.35;;;;;;;;;;5070013;28;20045;-74
2023/01/27 12:34:25;;;;;;;1.73;1.40;;;;;;;;;;5070513;28;20478;-74
2023/01/27 12:37:37;;;;;;;3.45;1.40;;;;;;;;;;5069427;28;20052;-74
2023/01/27 12:40:26;;;;;;;4.75;1.30;;;;;;;;;;5069858;28;20049;-73
2023/01/27 12:43:19;;;;;;;1.77;1.20;;;;;;;;;;5069453;28;20076;-75
2023/01/27 12:46:12;;;;;;;7.47;1.33;;;;;;;;;;5068936;28;20063;-74
2023/01/27 12:48:52;;;;;;;2.67;1.38;;;;;;;;;;5068036;28;20049;-74
2023/01/27 12:51:38;;;;;;;5.03;1.40;;;;;;;;;;5069550;28;20051;-75
2023/01/27 12:54:30;;;;;;;5.15;1.83;;;;;;;;;;5069311;28;20056;-77
2023/01/27 12:57:18;;;;;;;5.20;1.20;;;;;;;;;;5068944;28;20049;-74
2023/01/27 12:59:56;;;;;;;5.20;1.13;;;;;;;;;;5069429;28;20040;-75
2023/01/27 13:02:31;;;;;;;2.53;1.17;;;;;;;;;;5069908;28;20414;-75
2023/01/27 13:05:07;;;;;;;4.00;1.20;;;;;;;;;;5069807;28;20051;-75
2023/01/27 13:07:47;;;;;;;2.97;1.20;;;;;;;;;;5069601;28;20045;-75
2023/01/27 13:10:26;;;;;;;2.05;1.40;;;;;;;;;;5069507;28;20052;-75
2023/01/27 13:13:03;;;;;;;3.65;1.38;;;;;;;;;;5069031;28;20056;-75
2023/01/27 13:15:35;;;;;;;1.77;1.30;;;;;;;;;;5069116;28;20041;-73
2023/01/27 13:18:20;;;;;;;2.13;1.00;;;;;;;;;;5068594;28;20081;-73
2023/01/27 13:20:59;;;;;;;2.15;1.27;;;;;;;;;;5069079;28;20829;-73
2023/01/27 13:23:35;;;;;;;2.92;1.10;;;;;;;;;;5067129;28;20040;-73
2023/01/27 13:26:07;;;;;;;5.57;1.35;;;;;;;;;;5068678;28;20405;-75
2023/01/27 13:29:01;;;;;;;2.15;1.02;;;;;;;;;;5067632;28;20521;-75
2023/01/27 13:31:35;;;;;;;6.68;1.67;;;;;;;;;;5061953;28;20052;-75
2023/01/27 13:34:14;;;;;;;4.53;1.00;;;;;;;;;;5069256;28;20048;-76
2023/01/27 13:37:20;;;;;;;4.82;1.20;;;;;;;;;;5068895;28;20047;-76
2023/01/27 13:40:06;;;;;;;2.97;1.15;;;;;;;;;;5052203;28;20060;-75
2023/01/27 13:42:46;;;;;;;3.65;1.10;;;;;;;;;;5067939;28;20048;-76
2023/01/27 13:45:22;;;;;;;2.45;1.17;;;;;;;;;;5068280;28;20510;-76
2023/01/27 13:48:07;;;;;;;2.78;1.00;;;;;;;;;;5068566;28;20048;-75
2023/01/27 13:51:02;;;;;;;2.35;1.38;;;;;;;;;;5067651;28;20763;-77
2023/01/27 13:53:33;;;;;;;2.05;1.10;;;;;;;;;;5066608;28;20052;-79
2023/01/27 13:56:19;;;;;;;2.08;1.00;;;;;;;;;;5068465;28;20040;-76
2023/01/27 13:58:54;;;;;;;3.15;1.23;;;;;;;;;;5068377;28;20044;-76
2023/01/27 14:01:49;;;;;;;2.10;1.25;;;;;;;;;;5068625;28;20047;-75
2023/01/27 14:04:44;;;;;;;4.45;1.60;;;;;;;;;;5068254;28;20048;-77
2023/01/27 14:07:37;;;;;;;2.60;1.48;;;;;;;;;;5066299;28;20533;-75
2023/01/27 14:10:23;;;;;;;3.35;1.45;;;;;;;;;;5067428;28;20052;-75
2023/01/27 14:13:03;;;;;;;2.40;1.20;;;;;;;;;;5067948;28;20401;-77
2023/01/27 14:15:46;;;;;;;4.68;1.95;;;;;;;;;;5067792;28;20389;-74
2023/01/27 14:18:50;;;;;;;5.18;1.67;;;;;;;;;;5068323;28;20047;-76
2023/01/27 14:21:59;;;;;;;2.67;1.77;;;;;;;;;;5025374;28;20445;-76
2023/01/27 14:24:36;;;;;;;3.03;1.58;;;;;;;;;;5066789;28;20051;-76
2023/01/27 14:27:13;;;;;;;5.00;1.80;;;;;;;;;;5067362;28;20487;-76
2023/01/27 14:30:06;;;;;;;8.07;2.63;;;;;;;;;;5067257;28;20044;-76
2023/01/27 14:33:01;;;;;;;2.63;1.50;;;;;;;;;;5067895;28;20037;-79
2023/01/27 14:35:41;;;;;;;3.03;1.30;;;;;;;;;;5037715;28;20056;-75
2023/01/27 14:38:50;;;;;;;3.90;1.55;;;;;;;;;;5066056;28;20060;-75
2023/01/27 14:41:34;;;;;;;2.63;1.50;;;;;;;;;;5067253;28;20422;-76
2023/01/27 14:44:31;;;;;;;2.63;1.42;;;;;;;;;;5067112;28;20049;-76
2023/01/27 14:47:33;;;;;;;4.25;1.77;;;;;;;;;;5066458;28;20056;-76
2023/01/27 14:50:31;;;;;;;3.17;1.30;;;;;;;;;;5067758;28;20052;-74
2023/01/27 14:53:20;;;;;;;4.10;1.50;;;;;;;;;;5066935;28;20044;-76
2023/01/27 14:56:22;;;;;;;4.53;1.58;;;;;;;;;;5067137;28;20510;-77
2023/01/27 14:59:06;;;;;;;5.60;1.70;;;;;;;;;;5064848;28;20556;-77
2023/01/27 15:01:53;;;;;;;2.75;1.38;;;;;;;;;;5067417;28;20521;-74
2023/01/27 15:04:50;;;;;;;3.17;1.50;;;;;;;;;;5067138;28;20055;-75
2023/01/27 15:07:50;;;;;;;2.58;1.50;;;;;;;;;;5067189;28;20439;-75
2023/01/27 15:10:21;;;;;;;4.05;1.45;;;;;;;;;;5067234;28;20131;-77
2023/01/27 15:13:01;;;;;;;7.80;1.70;;;;;;;;;;5066673;28;20041;-77
2023/01/27 15:15:53;;;;;;;2.90;1.38;;;;;;;;;;5067068;28;20048;-73
2023/01/27 15:19:04;;;;;;;4.32;1.55;;;;;;;;;;5067030;28;20045;-76
2023/01/27 15:21:41;;;;;;;5.28;1.65;;;;;;;;;;5064836;28;20052;-76
2023/01/27 15:24:33;;;;;;;3.40;1.70;;;;;;;;;;5066241;28;20416;-74
2023/01/27 15:27:05;;;;;;;4.55;1.70;;;;;;;;;;5066219;28;20048;-76
2023/01/27 15:29:36;;;;;;;2.58;1.50;;;;;;;;;;5065346;28;20056;-78
2023/01/27 15:32:26;;;;;;;2.40;1.60;;;;;;;;;;5066881;28;20056;-75
2023/01/27 15:35:37;;;;;;;2.90;1.70;;;;;;;;;;5066509;28;20041;-75
2023/01/27 15:38:20;;;;;;;3.75;1.92;;;;;;;;;;5003841;28;20045;-76
2023/01/27 15:41:03;;;;;;;2.58;1.70;;;;;;;;;;5063883;28;20056;-77
2023/01/27 15:43:39;;;;;;;3.28;1.40;;;;;;;;;;5066548;28;20060;-76
2023/01/27 15:46:36;;;;;;;4.25;1.90;;;;;;;;;;5066596;28;20418;-78
2023/01/27 15:49:34;;;;;;;5.20;1.80;;;;;;;;;;5066470;28;20045;-76
2023/01/27 15:52:16;;;;;;;7.60;1.80;;;;;;;;;;5066394;28;20049;-76
2023/01/27 15:54:50;;;;;;;4.50;1.70;;;;;;;;;;5064614;28;20384;-76
2023/01/27 15:57:29;;;;;;;5.75;1.70;;;;;;;;;;5066957;28;20056;-74
2023/01/27 16:00:30;;;;;;;5.57;1.77;;;;;;;;;;5063799;28;20044;-76
2023/01/27 16:03:03;;;;;;;3.40;1.80;;;;;;;;;;5040405;28;20056;-74
2023/01/27 16:05:45;;;;;;;2.75;1.80;;;;;;;;;;5066237;28;20055;-74
2023/01/27 16:08:16;;;;;;;3.53;1.70;;;;;;;;;;5066252;28;20040;-79
2023/01/27 16:10:49;;;;;;;5.53;1.65;;;;;;;;;;5066696;28;20055;-73
2023/01/27 16:13:26;;;;;;;3.35;1.90;;;;;;;;;;5066472;28;20072;-77
2023/01/27 16:16:16;;;;;;;5.75;1.88;;;;;;;;;;5066127;28;20048;-75
2023/01/27 16:19:00;;;;;;;3.35;1.70;;;;;;;;;;5065834;28;20051;-75